createdAt,value
2023-01-30T00:00:19.817Z,101847.91
2023-01-30T00:02:49.982Z,101847.91
2023-01-30T00:05:19.835Z,101844.55
2023-01-30T00:07:49.801Z,101837.81
2023-01-30T00:10:20.284Z,101830.23
2023-01-30T00:12:50.192Z,101822.94
2023-01-30T00:15:19.762Z,101825.17
2023-01-30T00:17:49.835Z,101821.54
2023-01-30T00:20:20.671Z,101817.23
2023-01-30T00:23:00.472Z,101817.23
2023-01-30T00:25:22.252Z,101809.95
2023-01-30T00:27:52.364Z,101824.41
2023-01-30T00:30:22.345Z,101813.79
2023-01-30T00:32:57.475Z,101814.86
2023-01-30T00:35:29.266Z,101800.73
2023-01-30T00:38:00.096Z,101802.51
2023-01-30T00:40:30.866Z,101803.01
2023-01-30T00:43:19.507Z,101797.86
2023-01-30T00:46:08.121Z,101795.56
2023-01-30T00:48:38.261Z,101796.33
2023-01-30T00:51:08.039Z,101809.23
2023-01-30T00:53:38.104Z,101795.73
2023-01-30T00:56:08.152Z,101790.22
2023-01-30T00:58:37.940Z,101792.42
2023-01-30T01:01:08.043Z,101793.73
2023-01-30T01:03:38.182Z,101771.06
2023-01-30T01:06:08.388Z,101781.05
2023-01-30T01:08:38.530Z,101776.71
2023-01-30T01:11:08.433Z,101752.66
2023-01-30T01:13:38.478Z,101752.80
2023-01-30T01:16:08.380Z,101748.02
2023-01-30T01:18:39.120Z,101739.40
2023-01-30T01:21:09.123Z,101749.05
2023-01-30T01:23:39.209Z,101755.50
2023-01-30T01:26:08.951Z,101751.02
2023-01-30T01:28:38.711Z,101751.02
2023-01-30T01:31:13.104Z,101769.47
2023-01-30T01:33:42.990Z,101770.56
2023-01-30T01:36:29.444Z,101748.70
2023-01-30T01:38:45.776Z,101748.39
2023-01-30T01:41:18.081Z,101737.02
2023-01-30T01:44:17.160Z,101732.38
2023-01-30T01:46:50.257Z,101726.55
2023-01-30T01:49:25.612Z,101729.69
2023-01-30T01:52:06.725Z,101716.41
2023-01-30T01:54:39.932Z,101715.27
2023-01-30T01:57:12.754Z,101707.51
2023-01-30T01:59:45.889Z,101703.17
2023-01-30T02:02:18.037Z,101712.30
2023-01-30T02:05:02.402Z,101709.00
2023-01-30T02:07:41.008Z,101700.72
2023-01-30T02:10:18.967Z,101700.45
2023-01-30T02:12:51.213Z,101694.27
2023-01-30T02:15:22.608Z,101700.63
2023-01-30T02:17:52.596Z,101701.30
2023-01-30T02:20:27.979Z,101687.10
2023-01-30T02:23:12.649Z,101683.95
2023-01-30T02:25:56.949Z,101672.59
2023-01-30T02:28:41.415Z,101667.45
2023-01-30T02:31:35.380Z,101666.28
2023-01-30T02:34:10.954Z,101669.62
2023-01-30T02:36:53.235Z,101668.65
2023-01-30T02:39:40.753Z,101681.91
2023-01-30T02:42:37.744Z,101666.16
2023-01-30T02:45:26.486Z,101671.39
2023-01-30T02:48:02.632Z,101669.11
2023-01-30T02:50:38.086Z,101664.19
2023-01-30T02:53:08.882Z,101660.13
2023-01-30T02:55:41.579Z,101640.19
2023-01-30T02:58:12.461Z,101645.56
2023-01-30T03:00:58.536Z,101643.76
2023-01-30T03:03:36.885Z,101636.57
2023-01-30T03:06:34.535Z,101642.28
2023-01-30T03:09:29.739Z,101630.64
2023-01-30T03:12:05.195Z,101628.09
2023-01-30T03:14:54.448Z,101631.19
2023-01-30T03:17:27.351Z,101625.11
2023-01-30T03:19:57.543Z,101625.00
2023-01-30T03:22:27.624Z,101625.98
2023-01-30T03:24:57.983Z,101630.81
2023-01-30T03:27:28.259Z,101621.33
2023-01-30T03:29:58.320Z,101616.29
2023-01-30T03:32:28.167Z,101625.09
2023-01-30T03:34:58.515Z,101606.79
2023-01-30T03:37:28.959Z,101606.79
2023-01-30T03:40:00.492Z,101610.48
2023-01-30T03:42:30.352Z,101606.80
2023-01-30T03:45:00.452Z,101595.27
2023-01-30T03:47:30.215Z,101605.14
2023-01-30T03:50:00.379Z,101599.34
2023-01-30T03:52:30.639Z,101606.16
2023-01-30T03:55:00.799Z,101601.03
2023-01-30T03:57:30.898Z,101602.26
2023-01-30T04:00:01.745Z,101602.26
2023-01-30T04:02:33.569Z,101616.28
2023-01-30T04:05:03.820Z,101601.28
2023-01-30T04:07:33.888Z,101603.06
2023-01-30T04:10:04.059Z,101604.29
2023-01-30T04:12:35.221Z,101595.10
2023-01-30T04:15:08.159Z,101591.81
2023-01-30T04:17:47.705Z,101602.80
2023-01-30T04:20:21.943Z,101594.36
2023-01-30T04:22:55.215Z,101600.05
2023-01-30T04:25:26.209Z,101602.42
2023-01-30T04:27:56.857Z,101592.77
2023-01-30T04:30:31.029Z,101591.41
2023-01-30T04:35:25.014Z,101592.77
2023-01-30T04:37:55.457Z,101596.56
2023-01-30T04:40:25.606Z,101601.55
2023-01-30T04:42:55.683Z,101601.54
2023-01-30T04:45:33.128Z,101603.34
2023-01-30T04:48:03.237Z,101599.48
2023-01-30T04:50:33.483Z,101598.77
2023-01-30T04:53:03.988Z,101608.60
2023-01-30T04:55:33.882Z,101615.42
2023-01-30T04:58:04.110Z,101606.36
2023-01-30T05:00:34.665Z,101616.06
2023-01-30T05:03:04.979Z,101618.61
2023-01-30T05:05:34.703Z,101618.06
2023-01-30T05:08:04.699Z,101613.66
2023-01-30T05:10:34.481Z,101601.48
2023-01-30T05:13:06.253Z,101598.56
2023-01-30T05:15:36.167Z,101604.88
2023-01-30T05:18:06.085Z,101601.28
2023-01-30T05:20:35.904Z,101601.52
2023-01-30T05:23:05.857Z,101592.70
2023-01-30T05:25:35.650Z,101604.56
2023-01-30T05:28:05.610Z,101597.10
2023-01-30T05:30:35.218Z,101596.77
2023-01-30T05:33:04.997Z,101603.06
2023-01-30T05:35:34.808Z,101592.36
2023-01-30T05:38:04.859Z,101598.09
2023-01-30T05:40:34.378Z,101606.94
2023-01-30T05:43:04.127Z,101588.31
2023-01-30T05:45:34.273Z,101602.39
2023-01-30T05:48:04.501Z,101599.98
2023-01-30T05:50:34.135Z,101611.69
2023-01-30T05:53:04.175Z,101600.84
2023-01-30T05:55:33.969Z,101611.04
2023-01-30T05:58:03.722Z,101629.49
2023-01-30T06:00:33.493Z,101632.44
2023-01-30T06:03:03.350Z,101628.00
2023-01-30T06:05:33.167Z,101617.00
2023-01-30T06:08:02.903Z,101627.45
2023-01-30T06:10:32.687Z,101634.31
2023-01-30T06:13:02.245Z,101621.59
2023-01-30T06:15:32.028Z,101626.61
2023-01-30T06:18:01.875Z,101635.12
2023-01-30T06:20:31.589Z,101643.98
2023-01-30T06:23:01.349Z,101640.92
2023-01-30T06:25:31.284Z,101635.47
2023-01-30T06:28:01.143Z,101642.92
2023-01-30T06:30:30.830Z,101657.85
2023-01-30T06:33:00.683Z,101649.30
2023-01-30T06:35:30.783Z,101660.96
2023-01-30T06:38:00.608Z,101670.28
2023-01-30T06:40:30.225Z,101672.15
2023-01-30T06:43:00.092Z,101663.87
2023-01-30T06:45:29.916Z,101662.77
2023-01-30T06:47:59.733Z,101657.34
2023-01-30T06:50:30.655Z,101654.88
2023-01-30T06:53:01.936Z,101661.27
2023-01-30T06:55:34.614Z,101673.41
2023-01-30T06:58:08.364Z,101654.25
2023-01-30T07:00:40.170Z,101649.84
2023-01-30T07:03:17.298Z,101664.14
2023-01-30T07:05:48.498Z,101660.70
2023-01-30T07:08:18.038Z,101659.91
2023-01-30T07:10:48.188Z,101675.60
2023-01-30T07:13:17.980Z,101665.89
2023-01-30T07:15:47.739Z,101678.30
2023-01-30T07:18:17.429Z,101680.78
2023-01-30T07:20:50.997Z,101680.78
2023-01-30T07:23:21.059Z,101688.67
2023-01-30T07:25:50.814Z,101683.75
2023-01-30T07:28:20.602Z,101682.66
2023-01-30T07:30:52.261Z,101699.09
2023-01-30T07:33:22.363Z,101716.80
2023-01-30T07:35:52.019Z,101710.30
2023-01-30T07:38:21.649Z,101705.89
2023-01-30T07:40:51.500Z,101703.42
2023-01-30T07:43:21.415Z,101699.52
2023-01-30T07:45:51.280Z,101711.13
2023-01-30T07:48:21.355Z,101713.66
2023-01-30T07:50:51.191Z,101717.63
2023-01-30T07:53:20.982Z,101722.58
2023-01-30T07:55:50.790Z,101722.58
2023-01-30T07:58:20.588Z,101722.89
2023-01-30T08:00:50.654Z,101716.70
2023-01-30T08:03:20.528Z,101714.17
2023-01-30T08:05:50.346Z,101715.94
2023-01-30T08:08:19.862Z,101713.76
2023-01-30T08:10:52.619Z,101722.41
2023-01-30T08:13:22.510Z,101740.95
2023-01-30T08:15:52.264Z,101725.20
2023-01-30T08:18:22.067Z,101733.57
2023-01-30T08:20:51.674Z,101724.67
2023-01-30T08:23:21.481Z,101721.45
2023-01-30T08:25:51.310Z,101721.26
2023-01-30T08:28:21.303Z,101730.00
2023-01-30T08:30:53.321Z,101727.23
2023-01-30T08:33:24.189Z,101734.02
2023-01-30T08:35:54.016Z,101747.63
2023-01-30T08:38:23.510Z,101753.60
2023-01-30T08:40:53.297Z,101746.69
2023-01-30T08:43:23.101Z,101745.92
2023-01-30T08:45:55.228Z,101753.89
2023-01-30T08:48:25.703Z,101763.11
2023-01-30T08:50:56.755Z,101763.36
2023-01-30T08:53:26.631Z,101774.23
2023-01-30T08:55:56.378Z,101781.34
2023-01-30T08:58:26.320Z,101780.91
2023-01-30T09:00:56.269Z,101788.31
2023-01-30T09:03:26.113Z,101775.00
2023-01-30T09:05:57.221Z,101774.39
2023-01-30T09:08:26.721Z,101781.39
2023-01-30T09:11:00.448Z,101775.83
2023-01-30T09:13:31.016Z,101784.55
2023-01-30T09:16:01.249Z,101782.00
2023-01-30T09:18:30.672Z,101782.00
2023-01-30T09:21:05.508Z,101782.30
2023-01-30T09:23:35.280Z,101792.41
2023-01-30T09:26:07.268Z,101787.37
2023-01-30T09:28:37.424Z,101789.20
2023-01-30T09:31:07.326Z,101798.48
2023-01-30T09:33:37.088Z,101796.83
2023-01-30T09:36:07.516Z,101804.84
2023-01-30T09:38:37.418Z,101799.46
2023-01-30T09:41:12.835Z,101802.38
2023-01-30T09:44:05.060Z,101807.91
2023-01-30T09:46:40.887Z,101819.16
2023-01-30T09:49:38.529Z,101815.88
2023-01-30T09:52:47.698Z,101810.50
2023-01-30T09:55:22.994Z,101788.63
2023-01-30T09:57:53.576Z,101821.57
2023-01-30T10:00:35.690Z,101821.57
2023-01-30T10:03:11.389Z,101824.20
2023-01-30T10:05:52.874Z,101834.04
2023-01-30T10:08:41.764Z,101826.45
2023-01-30T10:11:30.945Z,101843.17
2023-01-30T10:14:15.360Z,101836.56
2023-01-30T10:17:20.893Z,101835.92
2023-01-30T10:20:29.681Z,101841.09
2023-01-30T10:23:20.147Z,101833.48
2023-01-30T10:25:56.281Z,101834.05
2023-01-30T10:28:29.470Z,101836.33
2023-01-30T10:31:17.604Z,101838.08
2023-01-30T10:33:57.788Z,101844.11
2023-01-30T10:36:39.648Z,101847.37
2023-01-30T10:39:27.238Z,101843.46
2023-01-30T10:42:06.893Z,101853.66
2023-01-30T10:44:36.733Z,101849.44
2023-01-30T10:47:32.095Z,101853.14
2023-01-30T10:50:20.148Z,101850.94
2023-01-30T10:52:58.854Z,101858.95
2023-01-30T10:55:47.786Z,101867.61
2023-01-30T10:58:32.578Z,101865.88
2023-01-30T11:01:20.376Z,101868.97
2023-01-30T11:03:53.293Z,101857.80
2023-01-30T11:06:27.698Z,101863.16
2023-01-30T11:08:58.483Z,101876.27
2023-01-30T11:11:31.453Z,101868.44
2023-01-30T11:14:09.809Z,101855.30
2023-01-30T11:16:47.999Z,101852.76
2023-01-30T11:19:22.993Z,101862.48
2023-01-30T11:21:55.563Z,101852.02
2023-01-30T11:24:37.117Z,101852.02
2023-01-30T11:27:22.080Z,101843.33
2023-01-30T11:29:53.460Z,101845.91
2023-01-30T11:32:30.427Z,101861.30
2023-01-30T11:35:08.922Z,101852.27
2023-01-30T11:37:41.340Z,101861.30
2023-01-30T11:40:26.048Z,101869.83
2023-01-30T11:43:13.901Z,101866.48
2023-01-30T11:45:46.772Z,101871.33
2023-01-30T11:48:33.362Z,101857.11
2023-01-30T11:50:57.696Z,101859.97
2023-01-30T11:53:36.312Z,101862.34
2023-01-30T11:56:32.385Z,101863.20
2023-01-30T11:59:05.090Z,101849.95
2023-01-30T12:01:37.502Z,101857.61
2023-01-30T12:04:11.209Z,101855.75
2023-01-30T12:06:43.837Z,101866.56
2023-01-30T12:09:31.636Z,101865.77
2023-01-30T12:12:01.909Z,101862.70
2023-01-30T12:14:44.996Z,101867.08
2023-01-30T12:17:19.117Z,101864.41
2023-01-30T12:20:10.350Z,101866.63
2023-01-30T12:22:46.216Z,101866.63
2023-01-30T12:25:30.707Z,101870.21
2023-01-30T12:28:04.071Z,101874.80
2023-01-30T12:30:51.478Z,101874.80
2023-01-30T12:33:21.649Z,101867.83
2023-01-30T12:36:12.243Z,101876.78
2023-01-30T12:38:50.747Z,101879.38
2023-01-30T12:41:38.114Z,101884.66
2023-01-30T12:44:29.714Z,101881.41
2023-01-30T12:47:11.301Z,101888.07
2023-01-30T12:49:49.863Z,101885.51
2023-01-30T12:52:36.985Z,101896.75
2023-01-30T12:55:38.057Z,101907.97
2023-01-30T12:58:35.654Z,101903.22
2023-01-30T13:01:28.882Z,101912.70
2023-01-30T13:04:07.727Z,101912.70
2023-01-30T13:06:58.055Z,101908.64
2023-01-30T13:09:50.030Z,101904.39
2023-01-30T13:12:22.931Z,101915.13
2023-01-30T13:15:04.432Z,101914.78
2023-01-30T13:17:55.505Z,101914.78
2023-01-30T13:20:31.767Z,101914.95
2023-01-30T13:23:13.496Z,101926.37
2023-01-30T13:25:58.890Z,101920.04
2023-01-30T13:28:32.039Z,101928.05
2023-01-30T13:31:02.944Z,101917.84
2023-01-30T13:33:35.983Z,101930.11
2023-01-30T13:36:26.092Z,101932.66
2023-01-30T13:39:04.890Z,101940.48
2023-01-30T13:41:40.206Z,101950.47
2023-01-30T13:44:31.913Z,101953.91
2023-01-30T13:47:20.983Z,101959.19
2023-01-30T13:50:02.453Z,101964.75
2023-01-30T13:52:44.356Z,101960.51
2023-01-30T13:55:31.772Z,101975.51
2023-01-30T13:58:07.430Z,101974.66
2023-01-30T14:00:37.526Z,101983.11
2023-01-30T14:03:12.402Z,101977.78
2023-01-30T14:06:01.218Z,101987.19
2023-01-30T14:08:42.616Z,101998.95
2023-01-30T14:11:36.469Z,102004.88
2023-01-30T14:14:21.501Z,101989.59
2023-01-30T14:16:59.464Z,102008.34
2023-01-30T14:19:50.480Z,102010.73
2023-01-30T14:22:26.636Z,102023.63
2023-01-30T14:25:27.772Z,102027.44
2023-01-30T14:28:03.191Z,102042.90
2023-01-30T14:30:42.365Z,102037.92
2023-01-30T14:33:26.807Z,102036.53
2023-01-30T14:36:05.124Z,102043.39
2023-01-30T14:38:36.737Z,102042.58
2023-01-30T14:41:09.840Z,102053.84
2023-01-30T14:43:45.125Z,102058.00
2023-01-30T14:46:23.791Z,102058.00
2023-01-30T14:48:56.984Z,102045.27
2023-01-30T14:51:43.315Z,102045.27
2023-01-30T14:54:17.342Z,102071.61
2023-01-30T14:57:01.328Z,102071.97
2023-01-30T14:59:37.005Z,102075.48
2023-01-30T15:02:20.220Z,102081.61
2023-01-30T15:04:53.082Z,102093.17
2023-01-30T15:07:29.127Z,102095.52
2023-01-30T15:10:02.094Z,102102.09
2023-01-30T15:12:43.503Z,102107.38
2023-01-30T15:15:34.457Z,102107.96
2023-01-30T15:18:24.433Z,102114.64
2023-01-30T15:21:06.015Z,102116.68
2023-01-30T15:23:38.851Z,102118.42
2023-01-30T15:26:34.793Z,102136.28
2023-01-30T15:29:17.108Z,102133.95
2023-01-30T15:31:58.437Z,102133.95
2023-01-30T15:34:34.082Z,102147.95
2023-01-30T15:37:03.917Z,102142.84
2023-01-30T15:39:33.710Z,102146.24
2023-01-30T15:42:08.803Z,102159.02
2023-01-30T15:44:52.993Z,102159.02
2023-01-30T15:47:44.953Z,102159.16
2023-01-30T15:50:17.118Z,102169.27
2023-01-30T15:52:49.757Z,102172.46
2023-01-30T15:55:22.541Z,102174.88
2023-01-30T15:57:57.107Z,102176.47
2023-01-30T16:00:32.598Z,102187.34
2023-01-30T16:03:05.298Z,102178.52
2023-01-30T16:05:35.249Z,102185.84
2023-01-30T16:08:11.395Z,102193.64
2023-01-30T16:10:46.662Z,102193.47
2023-01-30T16:13:16.705Z,102193.47
2023-01-30T16:16:13.483Z,102202.05
2023-01-30T16:18:52.359Z,102204.20
2023-01-30T16:21:25.139Z,102208.17
2023-01-30T16:24:22.170Z,102214.14
2023-01-30T16:26:56.142Z,102214.14
2023-01-30T16:29:28.257Z,102220.08
2023-01-30T16:31:59.045Z,102225.17
2023-01-30T16:34:37.471Z,102232.47
2023-01-30T16:37:10.267Z,102243.05
2023-01-30T16:39:40.113Z,102243.05
2023-01-30T16:42:31.008Z,102250.33
2023-01-30T16:45:06.540Z,102257.05
2023-01-30T16:47:37.552Z,102263.56
2023-01-30T16:50:22.580Z,102270.78
2023-01-30T16:52:55.001Z,102279.27
2023-01-30T16:55:28.308Z,102278.86
2023-01-30T16:58:01.136Z,102288.70
2023-01-30T17:00:34.017Z,102297.39
2023-01-30T17:03:07.160Z,102303.45
2023-01-30T17:05:42.339Z,102313.59
2023-01-30T17:08:42.765Z,102309.20
2023-01-30T17:11:15.403Z,102320.58
2023-01-30T17:13:46.772Z,102323.09
2023-01-30T17:16:27.928Z,102329.16
2023-01-30T17:18:58.398Z,102330.63
2023-01-30T17:21:34.205Z,102337.58
2023-01-30T17:26:45.019Z,102343.02
2023-01-30T17:29:28.902Z,102359.16
2023-01-30T17:31:51.352Z,102362.02
2023-01-30T17:34:22.721Z,102361.55
2023-01-30T17:36:54.038Z,102363.93
2023-01-30T17:39:27.498Z,102376.11
2023-01-30T17:41:57.552Z,102376.11
2023-01-30T17:44:27.167Z,102375.84
2023-01-30T17:46:56.996Z,102390.45
2023-01-30T17:49:26.805Z,102398.39
2023-01-30T17:51:58.010Z,102398.39
2023-01-30T17:54:29.986Z,102393.73
2023-01-30T17:57:09.164Z,102391.95
2023-01-30T17:59:39.013Z,102402.87
2023-01-30T18:02:11.900Z,102395.98
2023-01-30T18:04:41.670Z,102395.84
2023-01-30T18:07:14.148Z,102399.80
2023-01-30T18:09:44.108Z,102393.45
2023-01-30T18:12:13.567Z,102404.04
2023-01-30T18:14:43.334Z,102409.94
2023-01-30T18:17:13.834Z,102404.16
2023-01-30T18:19:43.601Z,102407.58
2023-01-30T18:22:13.364Z,102404.82
2023-01-30T18:24:43.130Z,102414.20
2023-01-30T18:27:13.254Z,102409.88
2023-01-30T18:29:43.059Z,102416.80
2023-01-30T18:32:12.872Z,102423.39
2023-01-30T18:34:42.693Z,102425.38
2023-01-30T18:37:12.446Z,102430.63
2023-01-30T18:39:42.209Z,102425.92
2023-01-30T18:42:12.006Z,102438.60
2023-01-30T18:44:41.744Z,102429.66
2023-01-30T18:47:11.520Z,102429.98
2023-01-30T18:49:41.268Z,102435.97
2023-01-30T18:52:11.482Z,102437.03
2023-01-30T18:54:41.712Z,102442.89
2023-01-30T18:57:11.775Z,102441.88
2023-01-30T18:59:41.837Z,102442.49
2023-01-30T19:02:14.437Z,102445.06
2023-01-30T19:04:44.277Z,102453.55
2023-01-30T19:07:14.021Z,102452.66
2023-01-30T19:09:43.817Z,102453.14
2023-01-30T19:12:26.974Z,102453.64
2023-01-30T19:14:56.728Z,102449.88
2023-01-30T19:17:26.805Z,102449.83
2023-01-30T19:19:57.345Z,102445.48
2023-01-30T19:22:26.881Z,102448.20
2023-01-30T19:24:56.774Z,102460.85
2023-01-30T19:27:26.742Z,102456.45
2023-01-30T19:29:56.822Z,102463.50
2023-01-30T19:32:26.545Z,102463.50
2023-01-30T19:34:56.569Z,102466.38
2023-01-30T19:37:26.393Z,102472.36
2023-01-30T19:39:56.191Z,102469.58
2023-01-30T19:42:25.852Z,102438.64
2023-01-30T19:44:55.597Z,102438.64
2023-01-30T19:47:25.394Z,102471.64
2023-01-30T19:49:55.855Z,102477.98
2023-01-30T19:52:25.558Z,102487.91
2023-01-30T19:54:55.667Z,102487.48
2023-01-30T19:57:25.479Z,102486.88
2023-01-30T19:59:55.294Z,102489.79
2023-01-30T20:02:25.099Z,102492.32
2023-01-30T20:04:54.899Z,102489.89
2023-01-30T20:07:24.658Z,102492.80
2023-01-30T20:09:54.712Z,102490.97
2023-01-30T20:12:24.195Z,102502.47
2023-01-30T20:14:53.986Z,102501.13
2023-01-30T20:17:23.721Z,102496.66
2023-01-30T20:19:53.296Z,102496.72
2023-01-30T20:22:25.444Z,102497.21
2023-01-30T20:24:55.219Z,102502.89
2023-01-30T20:27:25.051Z,102499.78
2023-01-30T20:29:54.839Z,102505.38
2023-01-30T20:32:24.606Z,102500.82
2023-01-30T20:34:54.726Z,102502.08
2023-01-30T20:37:25.774Z,102502.08
2023-01-30T20:39:55.532Z,102515.70
2023-01-30T20:42:25.026Z,102515.70
2023-01-30T20:44:54.752Z,102517.95
2023-01-30T20:47:24.660Z,102522.86
2023-01-30T20:49:54.432Z,102522.73
2023-01-30T20:52:24.554Z,102515.43
2023-01-30T20:54:55.843Z,102507.49
2023-01-30T20:57:25.894Z,102511.31
2023-01-30T20:59:55.648Z,102516.62
2023-01-30T21:02:25.432Z,102530.01
2023-01-30T21:04:55.243Z,102526.55
2023-01-30T21:07:25.052Z,102528.53
2023-01-30T21:09:54.802Z,102528.53
2023-01-30T21:12:24.281Z,102533.91
2023-01-30T21:14:54.075Z,102531.10
2023-01-30T21:17:23.928Z,102523.58
2023-01-30T21:19:53.739Z,102522.49
2023-01-30T21:22:23.227Z,102531.49
2023-01-30T21:24:53.016Z,102536.02
2023-01-30T21:27:22.777Z,102539.80
2023-01-30T21:29:52.360Z,102540.84
2023-01-30T21:32:22.116Z,102544.22
2023-01-30T21:34:51.864Z,102540.56
2023-01-30T21:37:39.239Z,102531.38
2023-01-30T21:40:29.660Z,102531.38
2023-01-30T21:43:14.284Z,102537.02
2023-01-30T21:45:44.536Z,102556.22
2023-01-30T21:48:14.311Z,102553.02
2023-01-30T21:50:44.638Z,102551.78
2023-01-30T21:53:14.718Z,102553.01
2023-01-30T21:55:44.179Z,102544.13
2023-01-30T21:58:13.929Z,102529.39
2023-01-30T22:00:43.837Z,102529.39
2023-01-30T22:03:13.833Z,102534.56
2023-01-30T22:05:45.545Z,102544.14
2023-01-30T22:08:15.330Z,102537.27
2023-01-30T22:10:45.120Z,102548.05
2023-01-30T22:13:14.872Z,102549.14
2023-01-30T22:15:44.990Z,102548.15
2023-01-30T22:18:14.756Z,102554.21
2023-01-30T22:20:44.515Z,102558.40
2023-01-30T22:23:14.274Z,102558.50
2023-01-30T22:25:44.051Z,102558.50
2023-01-30T22:28:13.516Z,102550.52
2023-01-30T22:30:43.319Z,102545.84
2023-01-30T22:33:13.055Z,102529.88
2023-01-30T22:35:46.133Z,102546.34
2023-01-30T22:38:15.900Z,102547.71
2023-01-30T22:40:45.648Z,102540.20
2023-01-30T22:43:15.480Z,102533.70
2023-01-30T22:45:45.260Z,102537.39
2023-01-30T22:48:16.564Z,102541.91
2023-01-30T22:50:47.544Z,102540.69
2023-01-30T22:53:17.633Z,102544.13
2023-01-30T22:55:47.380Z,102544.13
2023-01-30T22:58:19.673Z,102539.02
2023-01-30T23:00:49.428Z,102538.39
2023-01-30T23:03:19.555Z,102539.13
2023-01-30T23:06:03.881Z,102533.48
2023-01-30T23:08:35.818Z,102525.15
2023-01-30T23:11:20.039Z,102529.92
2023-01-30T23:13:52.268Z,102531.28
2023-01-30T23:16:25.223Z,102539.26
2023-01-30T23:18:55.644Z,102540.23
2023-01-30T23:21:37.068Z,102526.97
2023-01-30T23:24:09.917Z,102523.77
2023-01-30T23:26:42.986Z,102518.37
2023-01-30T23:29:15.687Z,102518.37
2023-01-30T23:31:46.599Z,102528.58
2023-01-30T23:34:19.156Z,102523.17
2023-01-30T23:36:48.908Z,102518.61
2023-01-30T23:39:18.745Z,102508.81
2023-01-30T23:41:48.826Z,102506.83
2023-01-30T23:44:18.607Z,102512.61
2023-01-30T23:46:48.521Z,102508.81
2023-01-30T23:49:18.685Z,102508.78
2023-01-30T23:51:49.979Z,102518.48
2023-01-30T23:54:19.891Z,102513.32
2023-01-30T23:56:49.667Z,102508.28
2023-01-30T23:59:19.399Z,102511.59
